createdAt,value
2022-10-22T00:01:11.801Z,98996.47
2022-10-22T00:03:38.733Z,98999.66
2022-10-22T00:06:05.441Z,99001.34
2022-10-22T00:08:32.281Z,98991.16
2022-10-22T00:10:58.983Z,98989.38
2022-10-22T00:13:25.339Z,98984.59
2022-10-22T00:15:52.287Z,98979.97
2022-10-22T00:18:18.677Z,98971.00
2022-10-22T00:20:45.117Z,98973.28
2022-10-22T00:23:11.591Z,98980.25
2022-10-22T00:25:38.109Z,98984.94
2022-10-22T00:28:04.652Z,98983.00
2022-10-22T00:30:31.200Z,98974.38
2022-10-22T00:32:57.686Z,98967.41
2022-10-22T00:35:24.324Z,98957.66
2022-10-22T00:37:50.915Z,98957.91
2022-10-22T00:40:17.398Z,98957.25
2022-10-22T00:42:44.088Z,98954.59
2022-10-22T00:45:10.629Z,98950.09
2022-10-22T00:47:37.346Z,98948.56
2022-10-22T00:52:30.707Z,98940.38
2022-10-22T00:54:57.228Z,98939.63
2022-10-22T00:57:23.668Z,98942.66
2022-10-22T00:59:50.318Z,98939.44
2022-10-22T01:04:52.108Z,98939.44
2022-10-22T01:07:18.444Z,98942.19
2022-10-22T01:09:44.848Z,98944.91
2022-10-22T01:12:11.490Z,98956.81
2022-10-22T01:14:37.832Z,98958.28
2022-10-22T01:17:04.179Z,98954.69
2022-10-22T01:19:30.807Z,98956.50
2022-10-22T01:21:57.221Z,98954.59
2022-10-22T01:24:23.586Z,98948.56
2022-10-22T01:26:50.242Z,98943.13
2022-10-22T01:29:16.606Z,98934.44
2022-10-22T01:31:42.989Z,98932.75
2022-10-22T01:34:09.397Z,98929.34
2022-10-22T01:36:35.778Z,98935.28
2022-10-22T01:39:02.134Z,98928.69
2022-10-22T01:41:28.521Z,98924.28
2022-10-22T01:43:54.909Z,98922.22
2022-10-22T01:46:21.306Z,98917.03
2022-10-22T01:48:47.731Z,98909.03
2022-10-22T01:51:14.132Z,98894.69
2022-10-22T01:53:40.488Z,98882.66
2022-10-22T01:56:07.411Z,98896.97
2022-10-22T01:58:33.841Z,98898.09
2022-10-22T02:01:00.347Z,98905.50
2022-10-22T02:03:27.117Z,98894.69
2022-10-22T02:05:53.457Z,98893.50
2022-10-22T02:08:19.791Z,98885.88
2022-10-22T02:10:46.640Z,98881.09
2022-10-22T02:13:12.972Z,98886.91
2022-10-22T02:15:42.047Z,98899.19
2022-10-22T02:18:08.683Z,98893.63
2022-10-22T02:20:35.055Z,98892.47
2022-10-22T02:23:01.431Z,98898.59
2022-10-22T02:25:27.766Z,98908.94
2022-10-22T02:27:54.167Z,98908.59
2022-10-22T02:30:20.467Z,98896.38
2022-10-22T02:32:46.854Z,98905.50
2022-10-22T02:35:13.207Z,98892.75
2022-10-22T02:37:39.554Z,98881.09
2022-10-22T02:40:06.474Z,98882.22
2022-10-22T02:42:33.175Z,98879.31
2022-10-22T02:44:59.504Z,98880.44
2022-10-22T02:47:26.164Z,98883.88
2022-10-22T02:49:52.496Z,98894.13
2022-10-22T02:52:18.847Z,98881.47
2022-10-22T02:54:45.220Z,98873.31
2022-10-22T02:57:11.613Z,98876.16
2022-10-22T02:59:37.994Z,98887.34
2022-10-22T03:02:04.416Z,98887.25
2022-10-22T03:04:30.772Z,98880.09
2022-10-22T03:06:57.190Z,98878.22
2022-10-22T03:09:24.858Z,98881.81
2022-10-22T03:11:51.452Z,98881.03
2022-10-22T03:14:17.801Z,98881.41
2022-10-22T03:16:44.477Z,98868.91
2022-10-22T03:19:10.852Z,98876.97
2022-10-22T03:21:37.244Z,98882.28
2022-10-22T03:24:04.248Z,98881.34
2022-10-22T03:26:30.618Z,98877.56
2022-10-22T03:28:57.026Z,98870.16
2022-10-22T03:31:23.429Z,98860.66
2022-10-22T03:33:49.825Z,98864.41
2022-10-22T03:36:16.178Z,98864.31
2022-10-22T03:38:42.721Z,98869.25
2022-10-22T03:41:09.065Z,98869.31
2022-10-22T03:43:35.413Z,98877.63
2022-10-22T03:46:01.836Z,98868.97
2022-10-22T03:48:28.173Z,98853.56
2022-10-22T03:50:54.543Z,98844.28
2022-10-22T03:53:20.972Z,98847.16
2022-10-22T03:55:47.287Z,98854.03
2022-10-22T03:58:13.664Z,98862.59
2022-10-22T04:00:40.131Z,98863.16
2022-10-22T04:03:06.513Z,98867.56
2022-10-22T04:05:32.926Z,98863.63
2022-10-22T04:07:59.427Z,98877.72
2022-10-22T04:10:25.794Z,98880.75
2022-10-22T04:12:52.299Z,98882.28
2022-10-22T04:15:19.241Z,98893.34
2022-10-22T04:17:45.626Z,98891.16
2022-10-22T04:20:12.003Z,98883.88
2022-10-22T04:22:38.882Z,98876.66
2022-10-22T04:25:05.281Z,98881.03
2022-10-22T04:27:31.651Z,98879.59
2022-10-22T04:29:58.363Z,98883.25
2022-10-22T04:32:24.764Z,98874.88
2022-10-22T04:34:51.130Z,98873.34
2022-10-22T04:37:17.796Z,98876.34
2022-10-22T04:39:44.259Z,98869.25
2022-10-22T04:42:10.757Z,98875.28
2022-10-22T04:44:37.330Z,98876.22
2022-10-22T04:47:03.702Z,98877.72
2022-10-22T04:49:30.091Z,98878.94
2022-10-22T04:51:56.644Z,98880.38
2022-10-22T04:54:23.046Z,98885.53
2022-10-22T04:56:49.460Z,98882.91
2022-10-22T04:59:15.952Z,98883.00
2022-10-22T05:01:43.150Z,98880.19
2022-10-22T05:04:09.781Z,98880.72
2022-10-22T05:06:37.459Z,98888.06
2022-10-22T05:09:03.916Z,98885.53
2022-10-22T05:11:30.290Z,98887.09
2022-10-22T05:13:57.133Z,98885.03
2022-10-22T05:16:23.472Z,98875.84
2022-10-22T05:18:49.871Z,98880.09
2022-10-22T05:21:16.748Z,98879.59
2022-10-22T05:23:43.077Z,98887.41
2022-10-22T05:26:09.429Z,98880.84
2022-10-22T05:28:36.340Z,98877.00
2022-10-22T05:31:02.728Z,98889.94
2022-10-22T05:33:29.075Z,98897.53
2022-10-22T05:35:56.426Z,98891.50
2022-10-22T05:38:22.849Z,98909.75
2022-10-22T05:40:49.214Z,98921.31
2022-10-22T05:43:15.658Z,98908.69
2022-10-22T05:45:42.053Z,98910.25
2022-10-22T05:48:08.414Z,98909.50
2022-10-22T05:50:35.123Z,98904.22
2022-10-22T05:53:01.732Z,98906.91
2022-10-22T05:55:28.077Z,98897.72
2022-10-22T05:57:54.761Z,98884.97
2022-10-22T06:00:21.185Z,98889.78
2022-10-22T06:02:47.643Z,98900.81
2022-10-22T06:05:14.105Z,98895.34
2022-10-22T06:07:40.862Z,98913.75
2022-10-22T06:10:07.210Z,98910.38
2022-10-22T06:12:33.690Z,98920.31
2022-10-22T06:15:00.051Z,98919.63
2022-10-22T06:17:26.501Z,98926.09
2022-10-22T06:19:53.271Z,98936.81
2022-10-22T06:22:20.033Z,98929.00
2022-10-22T06:24:46.463Z,98933.44
2022-10-22T06:27:13.002Z,98929.47
2022-10-22T06:29:39.368Z,98927.13
2022-10-22T06:32:05.768Z,98932.41
2022-10-22T06:34:32.427Z,98947.66
2022-10-22T06:36:58.869Z,98949.44
2022-10-22T06:39:25.250Z,98952.81
2022-10-22T06:41:51.899Z,98949.53
2022-10-22T06:44:18.534Z,98942.47
2022-10-22T06:46:44.976Z,98947.81
2022-10-22T06:49:12.406Z,98952.78
2022-10-22T06:51:38.785Z,98960.16
2022-10-22T06:54:05.138Z,98963.84
2022-10-22T06:56:31.535Z,98971.75
2022-10-22T06:58:57.931Z,98984.28
2022-10-22T07:01:24.636Z,98993.63
2022-10-22T07:03:51.090Z,98995.41
2022-10-22T07:06:17.514Z,98997.75
2022-10-22T07:08:44.111Z,98987.75
2022-10-22T07:11:10.648Z,98987.94
2022-10-22T07:13:37.019Z,99009.53
2022-10-22T07:16:03.966Z,99018.31
2022-10-22T07:18:30.586Z,99035.94
2022-10-22T07:20:59.707Z,99036.41
2022-10-22T07:23:26.376Z,99033.00
2022-10-22T07:25:53.094Z,99058.34
2022-10-22T07:28:19.565Z,99063.59
2022-10-22T07:30:45.926Z,99071.88
2022-10-22T07:33:12.539Z,99063.41
2022-10-22T07:35:39.004Z,99065.56
2022-10-22T07:38:06.448Z,99066.53
2022-10-22T07:40:32.869Z,99055.88
2022-10-22T07:42:59.264Z,99070.00
2022-10-22T07:45:25.794Z,99066.41
2022-10-22T07:47:52.268Z,99071.41
2022-10-22T07:50:19.028Z,99081.00
2022-10-22T07:52:45.444Z,99084.53
2022-10-22T07:55:12.274Z,99072.53
2022-10-22T07:57:38.833Z,99090.84
2022-10-22T08:00:05.264Z,99099.69
2022-10-22T08:02:31.808Z,99084.66
2022-10-22T08:04:58.179Z,99075.53
2022-10-22T08:07:24.517Z,99064.03
2022-10-22T08:09:51.236Z,99070.94
2022-10-22T08:12:17.648Z,99065.50
2022-10-22T08:14:44.242Z,99060.16
2022-10-22T08:17:10.818Z,99057.09
2022-10-22T08:19:37.207Z,99061.09
2022-10-22T08:22:05.038Z,99052.25
2022-10-22T08:24:31.756Z,99054.97
2022-10-22T08:26:58.135Z,99058.81
2022-10-22T08:29:25.744Z,99064.16
2022-10-22T08:31:52.604Z,99058.44
2022-10-22T08:34:18.953Z,99062.69
2022-10-22T08:36:45.364Z,99065.91
2022-10-22T08:39:12.123Z,99064.16
2022-10-22T08:41:38.637Z,99058.09
2022-10-22T08:44:05.038Z,99052.75
2022-10-22T08:46:31.458Z,99048.44
2022-10-22T08:48:57.985Z,99051.97
2022-10-22T08:51:24.510Z,99053.00
2022-10-22T08:53:51.278Z,99065.84
2022-10-22T08:56:17.736Z,99070.72
2022-10-22T08:58:44.102Z,99067.38
2022-10-22T09:01:10.720Z,99067.56
2022-10-22T09:03:37.090Z,99066.97
2022-10-22T09:06:03.498Z,99076.25
2022-10-22T09:08:30.012Z,99071.91
2022-10-22T09:10:56.549Z,99057.38
2022-10-22T09:13:22.998Z,99062.34
2022-10-22T09:15:49.544Z,99061.16
2022-10-22T09:18:18.244Z,99051.03
2022-10-22T09:20:44.591Z,99037.56
2022-10-22T09:23:11.035Z,99038.59
2022-10-22T09:25:37.570Z,99044.91
2022-10-22T09:28:03.945Z,99046.34
2022-10-22T09:30:30.410Z,99043.41
2022-10-22T09:32:56.796Z,99044.47
2022-10-22T09:35:23.152Z,99043.41
2022-10-22T09:37:49.567Z,99053.03
2022-10-22T09:40:15.917Z,99049.59
2022-10-22T09:42:42.620Z,99049.75
2022-10-22T09:45:09.237Z,99055.13
2022-10-22T09:48:00.694Z,99047.16
2022-10-22T09:50:21.955Z,99065.59
2022-10-22T09:52:48.357Z,99068.81
2022-10-22T09:55:14.716Z,99080.28
2022-10-22T09:57:44.480Z,99083.28
2022-10-22T10:00:11.020Z,99079.75
2022-10-22T10:02:38.594Z,99077.41
2022-10-22T10:05:05.886Z,99075.41
2022-10-22T10:07:32.255Z,99076.69
2022-10-22T10:09:59.159Z,99069.44
2022-10-22T10:12:25.572Z,99073.50
2022-10-22T10:14:51.944Z,99077.38
2022-10-22T10:17:19.852Z,99083.75
2022-10-22T10:19:46.451Z,99088.00
2022-10-22T10:22:12.784Z,99091.28
2022-10-22T10:24:39.290Z,99088.44
2022-10-22T10:27:05.986Z,99093.72
2022-10-22T10:29:32.377Z,99090.34
2022-10-22T10:31:58.750Z,99082.13
2022-10-22T10:34:27.794Z,99085.34
2022-10-22T10:36:54.201Z,99085.38
2022-10-22T10:39:23.610Z,99081.31
2022-10-22T10:41:50.342Z,99083.34
2022-10-22T10:44:16.789Z,99083.00
2022-10-22T10:46:43.140Z,99073.59
2022-10-22T10:49:10.035Z,99078.16
2022-10-22T10:51:36.516Z,99083.47
2022-10-22T10:54:02.921Z,99072.69
2022-10-22T10:56:29.257Z,99075.72
2022-10-22T10:58:55.608Z,99067.69
2022-10-22T11:01:22.120Z,99059.22
2022-10-22T11:03:48.829Z,99066.00
2022-10-22T11:06:15.214Z,99054.78
2022-10-22T11:08:41.721Z,99048.66
2022-10-22T11:11:08.481Z,99052.56
2022-10-22T11:13:36.182Z,99055.53
2022-10-22T11:16:02.558Z,99056.16
2022-10-22T11:18:28.990Z,99054.84
2022-10-22T11:20:55.547Z,99050.22
2022-10-22T11:23:22.449Z,99046.00
2022-10-22T11:25:49.043Z,99039.00
2022-10-22T11:30:46.689Z,99039.88
2022-10-22T11:33:13.374Z,99042.94
2022-10-22T11:35:39.817Z,99051.31
2022-10-22T11:38:06.348Z,99054.38
2022-10-22T11:40:33.033Z,99055.94
2022-10-22T11:42:59.599Z,99056.84
2022-10-22T11:45:25.956Z,99046.00
2022-10-22T11:47:52.561Z,99050.88
2022-10-22T11:50:19.047Z,99044.72
2022-10-22T11:52:45.458Z,99049.91
2022-10-22T11:55:12.428Z,99039.03
2022-10-22T11:57:39.338Z,99060.53
2022-10-22T12:00:06.013Z,99061.69
2022-10-22T12:02:32.990Z,99053.00
2022-10-22T12:04:59.657Z,99055.75
2022-10-22T12:07:26.025Z,99046.13
2022-10-22T12:12:24.347Z,99043.06
2022-10-22T12:14:51.716Z,99043.78
2022-10-22T12:17:18.118Z,99042.69
2022-10-22T12:19:45.425Z,99044.50
2022-10-22T12:22:11.788Z,99039.25
2022-10-22T12:24:38.544Z,99040.41
2022-10-22T12:27:04.902Z,99044.91
2022-10-22T12:29:31.262Z,99038.28
2022-10-22T12:31:57.904Z,99043.44
2022-10-22T12:34:24.323Z,99052.88
2022-10-22T12:36:50.659Z,99056.06
2022-10-22T12:39:17.377Z,99045.56
2022-10-22T12:41:43.746Z,99039.25
2022-10-22T12:44:10.083Z,99043.78
2022-10-22T12:46:36.472Z,99040.72
2022-10-22T12:49:03.033Z,99036.19
2022-10-22T12:51:29.500Z,99042.59
2022-10-22T12:53:55.983Z,99035.09
2022-10-22T12:56:22.519Z,99043.66
2022-10-22T12:58:48.924Z,99050.66
2022-10-22T13:01:15.461Z,99045.47
2022-10-22T13:03:41.851Z,99042.22
2022-10-22T13:06:08.236Z,99046.81
2022-10-22T13:08:34.739Z,99050.47
2022-10-22T13:11:01.131Z,99039.13
2022-10-22T13:13:27.541Z,99042.19
2022-10-22T13:15:54.001Z,99044.97
2022-10-22T13:18:20.401Z,99049.59
2022-10-22T13:20:47.009Z,99043.06
2022-10-22T13:23:13.611Z,99041.97
2022-10-22T13:25:39.948Z,99035.63
2022-10-22T13:28:06.367Z,99030.75
2022-10-22T13:30:33.177Z,99043.47
2022-10-22T13:32:59.568Z,99042.59
2022-10-22T13:35:25.929Z,99040.50
2022-10-22T13:37:52.390Z,99048.00
2022-10-22T13:40:18.794Z,99042.81
2022-10-22T13:42:45.194Z,99038.31
2022-10-22T13:45:12.125Z,99046.75
2022-10-22T13:47:38.494Z,99049.41
2022-10-22T13:50:04.979Z,99049.47
2022-10-22T13:52:31.446Z,99044.91
2022-10-22T13:54:57.860Z,99047.69
2022-10-22T13:57:24.437Z,99044.72
2022-10-22T13:59:51.037Z,99046.31
2022-10-22T14:02:19.732Z,99046.38
2022-10-22T14:04:47.395Z,99058.47
2022-10-22T14:07:15.090Z,99063.28
2022-10-22T14:09:41.424Z,99060.41
2022-10-22T14:12:07.819Z,99058.94
2022-10-22T14:14:34.590Z,99062.31
2022-10-22T14:17:00.991Z,99064.97
2022-10-22T14:19:27.477Z,99065.25
2022-10-22T14:21:54.039Z,99053.81
2022-10-22T14:24:20.508Z,99062.44
2022-10-22T14:26:47.100Z,99057.97
2022-10-22T14:29:13.771Z,99055.00
2022-10-22T14:34:11.594Z,99055.56
2022-10-22T14:36:38.004Z,99055.66
2022-10-22T14:39:04.355Z,99068.22
2022-10-22T14:41:30.721Z,99070.22
2022-10-22T14:43:57.777Z,99068.50
2022-10-22T14:46:24.309Z,99066.72
2022-10-22T14:48:50.633Z,99063.75
2022-10-22T14:51:17.202Z,99057.28
2022-10-22T14:53:43.671Z,99059.09
2022-10-22T14:56:10.230Z,99054.84
2022-10-22T14:58:36.651Z,99053.19
2022-10-22T15:01:03.102Z,99066.78
2022-10-22T15:03:29.465Z,99058.59
2022-10-22T15:05:56.334Z,99068.97
2022-10-22T15:08:22.795Z,99071.84
2022-10-22T15:10:49.160Z,99065.69
2022-10-22T15:13:15.823Z,99075.56
2022-10-22T15:15:42.177Z,99067.41
2022-10-22T15:18:08.777Z,99064.31
2022-10-22T15:20:35.970Z,99069.19
2022-10-22T15:23:02.368Z,99075.56
2022-10-22T15:25:29.043Z,99077.38
2022-10-22T15:27:59.651Z,99079.91
2022-10-22T15:30:34.193Z,99073.03
2022-10-22T15:33:01.069Z,99074.06
2022-10-22T15:35:27.466Z,99073.75
2022-10-22T15:37:53.907Z,99076.94
2022-10-22T15:40:20.330Z,99083.63
2022-10-22T15:42:49.507Z,99083.72
2022-10-22T15:45:16.105Z,99098.53
2022-10-22T15:47:45.057Z,99085.31
2022-10-22T15:50:13.703Z,99112.94
2022-10-22T15:52:40.182Z,99104.19
2022-10-22T15:55:07.128Z,99091.13
2022-10-22T15:57:33.680Z,99096.75
2022-10-22T16:00:01.062Z,99093.47
2022-10-22T16:02:27.713Z,99097.38
2022-10-22T16:04:54.176Z,99104.94
2022-10-22T16:07:23.912Z,99119.31
2022-10-22T16:09:51.600Z,99103.53
2022-10-22T16:12:18.019Z,99106.16
2022-10-22T16:14:44.596Z,99117.72
2022-10-22T16:17:11.178Z,99125.25
2022-10-22T16:19:37.616Z,99130.31
2022-10-22T16:22:04.231Z,99135.94
2022-10-22T16:24:31.825Z,99148.44
2022-10-22T16:26:58.246Z,99152.56
2022-10-22T16:29:24.825Z,99159.69
2022-10-22T16:31:51.623Z,99166.31
2022-10-22T16:34:18.033Z,99171.22
2022-10-22T16:36:45.271Z,99182.69
2022-10-22T16:39:11.846Z,99180.03
2022-10-22T16:41:38.446Z,99179.78
2022-10-22T16:44:04.855Z,99191.88
2022-10-22T16:46:31.346Z,99189.81
2022-10-22T16:48:58.267Z,99194.63
2022-10-22T16:51:25.100Z,99205.09
2022-10-22T16:53:51.676Z,99198.75
2022-10-22T16:56:18.296Z,99209.22
2022-10-22T16:58:44.770Z,99196.63
2022-10-22T17:01:11.714Z,99216.78
2022-10-22T17:03:38.623Z,99216.47
2022-10-22T17:06:05.436Z,99219.63
2022-10-22T17:08:32.367Z,99211.31
2022-10-22T17:10:58.963Z,99211.00
2022-10-22T17:13:26.653Z,99214.19
2022-10-22T17:15:53.535Z,99225.94
2022-10-22T17:18:19.966Z,99221.38
2022-10-22T17:20:46.819Z,99210.25
2022-10-22T17:23:13.755Z,99219.19
2022-10-22T17:25:40.552Z,99233.69
2022-10-22T17:28:07.447Z,99227.06
2022-10-22T17:30:34.465Z,99215.56
2022-10-22T17:33:01.167Z,99215.25
2022-10-22T17:38:00.268Z,99230.06
2022-10-22T17:40:27.144Z,99233.88
2022-10-22T17:42:53.869Z,99244.09
2022-10-22T17:45:21.244Z,99238.31
2022-10-22T17:47:48.080Z,99252.41
2022-10-22T17:50:14.677Z,99245.72
2022-10-22T17:52:41.652Z,99260.63
2022-10-22T17:55:09.396Z,99245.97
2022-10-22T17:57:35.916Z,99244.41
2022-10-22T18:00:02.713Z,99250.06
2022-10-22T18:02:29.109Z,99248.06
2022-10-22T18:04:55.818Z,99263.63
2022-10-22T18:07:22.402Z,99256.44
2022-10-22T18:09:49.224Z,99265.72
2022-10-22T18:12:17.007Z,99272.19
2022-10-22T18:14:44.662Z,99286.50
2022-10-22T18:17:12.265Z,99282.34
2022-10-22T18:19:39.004Z,99278.97
2022-10-22T18:22:05.883Z,99290.19
2022-10-22T18:24:33.381Z,99274.78
2022-10-22T18:27:01.032Z,99281.41
2022-10-22T18:29:28.092Z,99277.53
2022-10-22T18:31:54.834Z,99282.06
2022-10-22T18:34:23.792Z,99272.97
2022-10-22T18:36:57.268Z,99287.09
2022-10-22T18:39:24.057Z,99280.47
2022-10-22T18:41:50.957Z,99283.97
2022-10-22T18:44:20.770Z,99292.69
2022-10-22T18:46:47.867Z,99292.88
2022-10-22T18:49:14.807Z,99285.06
2022-10-22T18:51:45.145Z,99294.78
2022-10-22T18:54:22.799Z,99302.84
2022-10-22T18:56:50.376Z,99294.72
2022-10-22T18:59:17.080Z,99309.19
2022-10-22T19:01:44.158Z,99310.06
2022-10-22T19:04:11.914Z,99300.41
2022-10-22T19:06:40.680Z,99310.94
2022-10-22T19:09:09.911Z,99304.97
2022-10-22T19:11:37.119Z,99309.94
2022-10-22T19:14:04.703Z,99313.38
2022-10-22T19:16:31.482Z,99316.38
2022-10-22T19:18:58.576Z,99320.16
2022-10-22T19:21:25.471Z,99325.88
2022-10-22T19:23:52.054Z,99321.84
2022-10-22T19:26:19.263Z,99325.81
2022-10-22T19:28:48.054Z,99322.94
2022-10-22T19:31:14.697Z,99332.19
2022-10-22T19:33:41.329Z,99337.78
2022-10-22T19:36:09.123Z,99339.38
2022-10-22T19:38:35.558Z,99344.69
2022-10-22T19:41:02.646Z,99335.25
2022-10-22T19:43:29.045Z,99350.38
2022-10-22T19:45:55.819Z,99342.44
2022-10-22T19:48:23.678Z,99345.13
2022-10-22T19:50:50.656Z,99351.56
2022-10-22T19:53:17.331Z,99356.59
2022-10-22T19:55:44.139Z,99363.16
2022-10-22T19:58:10.877Z,99355.69
2022-10-22T20:00:37.603Z,99356.03
2022-10-22T20:03:04.124Z,99359.25
2022-10-22T20:05:30.651Z,99353.28
2022-10-22T20:07:57.254Z,99363.34
2022-10-22T20:10:23.756Z,99358.25
2022-10-22T20:12:50.523Z,99366.81
2022-10-22T20:15:16.955Z,99365.91
2022-10-22T20:17:43.921Z,99365.59
2022-10-22T20:20:10.411Z,99365.47
2022-10-22T20:22:36.860Z,99359.84
2022-10-22T20:25:03.181Z,99358.03
2022-10-22T20:27:29.563Z,99354.91
2022-10-22T20:29:57.540Z,99368.34
2022-10-22T20:32:24.392Z,99362.38
2022-10-22T20:34:51.097Z,99368.44
2022-10-22T20:37:20.565Z,99370.34
2022-10-22T20:39:47.425Z,99369.94
2022-10-22T20:42:14.120Z,99365.00
2022-10-22T20:44:40.587Z,99371.16
2022-10-22T20:47:07.612Z,99387.25
2022-10-22T20:49:34.274Z,99379.59
2022-10-22T20:52:01.025Z,99372.22
2022-10-22T20:54:28.713Z,99376.25
2022-10-22T20:56:55.515Z,99381.00
2022-10-22T20:59:22.400Z,99383.16
2022-10-22T21:01:49.894Z,99376.00
2022-10-22T21:04:16.364Z,99392.03
2022-10-22T21:06:42.716Z,99386.84
2022-10-22T21:09:10.609Z,99393.97
2022-10-22T21:11:37.231Z,99389.13
2022-10-22T21:14:03.625Z,99382.34
2022-10-22T21:16:30.640Z,99388.53
2022-10-22T21:18:57.248Z,99389.03
2022-10-22T21:21:23.693Z,99391.63
2022-10-22T21:23:50.306Z,99395.19
2022-10-22T21:26:17.201Z,99384.19
2022-10-22T21:28:43.648Z,99394.94
2022-10-22T21:31:10.182Z,99396.72
2022-10-22T21:33:36.630Z,99392.28
2022-10-22T21:36:03.128Z,99389.41
2022-10-22T21:38:29.763Z,99392.41
2022-10-22T21:40:56.205Z,99390.16
2022-10-22T21:43:22.587Z,99391.16
2022-10-22T21:45:49.056Z,99386.59
2022-10-22T21:48:15.402Z,99391.13
2022-10-22T21:50:42.026Z,99390.69
2022-10-22T21:53:08.616Z,99393.28
2022-10-22T21:55:35.016Z,99396.53
2022-10-22T21:58:01.387Z,99390.84
2022-10-22T22:00:29.901Z,99389.50
2022-10-22T22:02:56.547Z,99392.47
2022-10-22T22:05:22.960Z,99393.75
2022-10-22T22:07:49.709Z,99404.03
2022-10-22T22:10:16.313Z,99395.03
2022-10-22T22:12:43.300Z,99398.88
2022-10-22T22:15:10.105Z,99398.09
2022-10-22T22:17:36.855Z,99389.34
2022-10-22T22:20:03.245Z,99385.28
2022-10-22T22:22:29.898Z,99387.13
2022-10-22T22:24:56.244Z,99376.69
2022-10-22T22:27:23.623Z,99384.25
2022-10-22T22:29:50.702Z,99393.25
2022-10-22T22:32:17.189Z,99386.66
2022-10-22T22:34:43.570Z,99391.88
2022-10-22T22:37:11.121Z,99391.03
2022-10-22T22:39:37.673Z,99392.50
2022-10-22T22:42:04.048Z,99390.63
2022-10-22T22:44:30.417Z,99386.91
2022-10-22T22:46:56.870Z,99385.22
2022-10-22T22:49:23.644Z,99391.16
2022-10-22T22:51:50.179Z,99400.56
2022-10-22T22:54:16.565Z,99395.50
2022-10-22T22:56:42.923Z,99400.38
2022-10-22T22:59:09.492Z,99405.28
2022-10-22T23:01:36.359Z,99405.31
2022-10-22T23:04:02.725Z,99400.78
2022-10-22T23:06:29.396Z,99403.78
2022-10-22T23:08:55.894Z,99406.34
2022-10-22T23:11:22.299Z,99395.19
2022-10-22T23:13:49.004Z,99401.41
2022-10-22T23:16:15.533Z,99407.66
2022-10-22T23:18:42.031Z,99413.31
2022-10-22T23:21:08.466Z,99415.94
2022-10-22T23:23:34.812Z,99414.78
2022-10-22T23:26:01.338Z,99415.38
2022-10-22T23:28:27.783Z,99416.47
2022-10-22T23:30:54.161Z,99424.06
2022-10-22T23:33:20.549Z,99423.47
2022-10-22T23:35:47.322Z,99422.16
2022-10-22T23:38:13.707Z,99430.09
2022-10-22T23:40:40.074Z,99423.31
2022-10-22T23:43:06.698Z,99423.84
2022-10-22T23:45:33.283Z,99424.41
2022-10-22T23:47:59.647Z,99429.75
2022-10-22T23:50:26.060Z,99431.06
2022-10-22T23:52:52.411Z,99431.06
2022-10-22T23:55:18.832Z,99437.41
2022-10-22T23:57:45.647Z,99428.81
